sensor_id;sensor_type;location;lat;lon;timestamp;pressure;altitude;pressure_sealevel;temperature;humidity
28510;BME280;15723;55.684;37.928;2022-11-09T08:49:12;100179.50;;;12.20;72.75
28510;BME280;15723;55.684;37.928;2022-11-09T08:51:40;100178.31;;;12.24;72.73
28510;BME280;15723;55.684;37.928;2022-11-09T08:54:06;100178.53;;;12.21;72.75
28510;BME280;15723;55.684;37.928;2022-11-09T08:56:33;100172.88;;;12.24;72.20
28510;BME280;15723;55.684;37.928;2022-11-09T08:58:59;100173.56;;;12.28;72.69
28510;BME280;15723;55.684;37.928;2022-11-09T09:01:25;100163.72;;;12.52;72.11
28510;BME280;15723;55.684;37.928;2022-11-09T09:03:51;100166.34;;;12.53;71.35
28510;BME280;15723;55.684;37.928;2022-11-09T09:06:17;100161.72;;;12.41;71.45
28510;BME280;15723;55.684;37.928;2022-11-09T09:08:43;100158.06;;;12.55;71.80
28510;BME280;15723;55.684;37.928;2022-11-09T09:11:09;100162.16;;;12.88;70.01
28510;BME280;15723;55.684;37.928;2022-11-09T09:13:35;100159.41;;;12.75;70.41
28510;BME280;15723;55.684;37.928;2022-11-09T09:16:10;100159.44;;;12.88;69.49
28510;BME280;15723;55.684;37.928;2022-11-09T09:18:37;100161.94;;;12.91;69.74
28510;BME280;15723;55.684;37.928;2022-11-09T09:21:07;100156.72;;;13.13;69.51
28510;BME280;15723;55.684;37.928;2022-11-09T09:23:34;100154.09;;;12.86;69.89
28510;BME280;15723;55.684;37.928;2022-11-09T09:26:00;100155.06;;;12.98;69.34
28510;BME280;15723;55.684;37.928;2022-11-09T09:28:26;100171.09;;;12.90;69.12
28510;BME280;15723;55.684;37.928;2022-11-09T09:30:52;100172.81;;;12.78;69.41
28510;BME280;15723;55.684;37.928;2022-11-09T09:33:18;100167.84;;;13.10;68.93
28510;BME280;15723;55.684;37.928;2022-11-09T09:35:44;100173.31;;;13.23;68.23
28510;BME280;15723;55.684;37.928;2022-11-09T09:38:10;100171.88;;;13.04;68.43
28510;BME280;15723;55.684;37.928;2022-11-09T09:40:49;100165.81;;;13.26;68.40
28510;BME280;15723;55.684;37.928;2022-11-09T09:46:05;100170.16;;;13.29;67.91
28510;BME280;15723;55.684;37.928;2022-11-09T09:48:36;100169.38;;;13.01;68.81
28510;BME280;15723;55.684;37.928;2022-11-09T09:51:09;100170.44;;;12.99;69.00
28510;BME280;15723;55.684;37.928;2022-11-09T09:53:45;100174.16;;;12.98;68.75
28510;BME280;15723;55.684;37.928;2022-11-09T09:56:20;100181.16;;;13.02;69.16
28510;BME280;15723;55.684;37.928;2022-11-09T09:58:48;100166.00;;;13.10;68.65
28510;BME280;15723;55.684;37.928;2022-11-09T10:01:20;100168.03;;;12.94;68.78
28510;BME280;15723;55.684;37.928;2022-11-09T10:03:48;100167.25;;;12.67;69.39
28510;BME280;15723;55.684;37.928;2022-11-09T10:14:21;100174.25;;;12.83;69.18
28510;BME280;15723;55.684;37.928;2022-11-09T10:22:05;100180.06;;;12.52;70.62
28510;BME280;15723;55.684;37.928;2022-11-09T10:24:35;100171.53;;;12.83;69.77
28510;BME280;15723;55.684;37.928;2022-11-09T10:27:05;100177.75;;;12.98;69.48
28510;BME280;15723;55.684;37.928;2022-11-09T10:29:38;100167.16;;;12.68;70.28
28510;BME280;15723;55.684;37.928;2022-11-09T10:32:13;100184.75;;;12.63;70.21
28510;BME280;15723;55.684;37.928;2022-11-09T10:37:31;100162.47;;;12.83;69.68
28510;BME280;15723;55.684;37.928;2022-11-09T10:40:03;100168.78;;;12.71;70.26
28510;BME280;15723;55.684;37.928;2022-11-09T10:42:53;100167.81;;;12.72;70.13
28510;BME280;15723;55.684;37.928;2022-11-09T10:45:39;100162.06;;;12.49;71.19
28510;BME280;15723;55.684;37.928;2022-11-09T10:48:31;100167.38;;;12.78;70.32
28510;BME280;15723;55.684;37.928;2022-11-09T10:51:32;100171.94;;;12.65;70.53
28510;BME280;15723;55.684;37.928;2022-11-09T10:54:19;100161.28;;;12.87;70.14
28510;BME280;15723;55.684;37.928;2022-11-09T10:57:17;100165.09;;;12.72;70.80
28510;BME280;15723;55.684;37.928;2022-11-09T11:00:03;100168.56;;;12.74;70.87
28510;BME280;15723;55.684;37.928;2022-11-09T11:02:49;100168.69;;;12.98;70.21
28510;BME280;15723;55.684;37.928;2022-11-09T11:05:34;100170.09;;;12.78;70.18
28510;BME280;15723;55.684;37.928;2022-11-09T11:08:53;100169.03;;;12.93;70.20
28510;BME280;15723;55.684;37.928;2022-11-09T11:11:30;100166.06;;;12.71;70.32
28510;BME280;15723;55.684;37.928;2022-11-09T11:17:03;100167.25;;;12.67;71.27
28510;BME280;15723;55.684;37.928;2022-11-09T11:19:47;100171.06;;;12.64;71.20
28510;BME280;15723;55.684;37.928;2022-11-09T11:22:32;100168.34;;;12.77;70.96
28510;BME280;15723;55.684;37.928;2022-11-09T11:25:20;100169.03;;;12.93;70.42
28510;BME280;15723;55.684;37.928;2022-11-09T11:28:16;100166.00;;;12.45;71.85
28510;BME280;15723;55.684;37.928;2022-11-09T11:31:03;100161.38;;;12.86;70.76
28510;BME280;15723;55.684;37.928;2022-11-09T11:33:49;100165.78;;;13.01;70.27
28510;BME280;15723;55.684;37.928;2022-11-09T11:50:45;100173.47;;;12.69;71.46
28510;BME280;15723;55.684;37.928;2022-11-09T11:56:44;100166.28;;;12.93;70.67
28510;BME280;15723;55.684;37.928;2022-11-09T12:05:21;100168.19;;;12.53;71.93
28510;BME280;15723;55.684;37.928;2022-11-09T12:08:14;100166.28;;;12.28;73.16
28510;BME280;15723;55.684;37.928;2022-11-09T12:19:39;100161.44;;;12.59;72.11
28510;BME280;15723;55.684;37.928;2022-11-09T12:31:43;100163.38;;;12.44;72.43
28510;BME280;15723;55.684;37.928;2022-11-09T12:34:33;100172.81;;;12.65;72.15
28510;BME280;15723;55.684;37.928;2022-11-09T12:37:22;100169.81;;;12.56;72.43
